Time;durP1;ratioP1;P1;durP2;ratioP2;P2;SDS_P1;SDS_P2;PMS_P1;PMS_P2;Temp;Humidity;BMP_temperature;BMP_pressure;BME280_temperature;BME280_humidity;BME280_pressure;Samples;Min_cycle;Max_cycle;Signal;HPM_P1;HPM_P2
2023/08/10 00:01:40;;;;;;;7.45;2.88;;;;;;;;;;5015666;28;25063;-71
2023/08/10 00:04:06;;;;;;;4.72;2.30;;;;;;;;;;5005868;28;25174;-70
2023/08/10 00:06:32;;;;;;;4.72;2.10;;;;;;;;;;5019521;28;25094;-71
2023/08/10 00:08:58;;;;;;;4.82;2.05;;;;;;;;;;4997089;28;25073;-72
2023/08/10 00:11:24;;;;;;;3.00;1.80;;;;;;;;;;4995899;28;25185;-70
2023/08/10 00:13:50;;;;;;;4.25;2.30;;;;;;;;;;4998326;28;25086;-71
2023/08/10 00:16:16;;;;;;;5.43;2.50;;;;;;;;;;4985952;28;25162;-71
2023/08/10 00:18:42;;;;;;;6.20;2.50;;;;;;;;;;4989822;28;25070;-71
2023/08/10 00:21:08;;;;;;;5.50;2.95;;;;;;;;;;4987818;28;25062;-71
2023/08/10 00:23:34;;;;;;;3.70;1.95;;;;;;;;;;5000856;28;25070;-71
2023/08/10 00:26:00;;;;;;;4.32;2.10;;;;;;;;;;4991267;28;24994;-71
2023/08/10 00:28:26;;;;;;;4.05;1.83;;;;;;;;;;4984376;28;25052;-70
2023/08/10 00:30:52;;;;;;;4.45;2.38;;;;;;;;;;5015898;28;25074;-70
2023/08/10 00:33:18;;;;;;;5.35;2.25;;;;;;;;;;5006510;28;25074;-70
2023/08/10 00:35:44;;;;;;;4.28;2.47;;;;;;;;;;4995599;28;25139;-70
2023/08/10 00:38:11;;;;;;;3.88;1.90;;;;;;;;;;4997584;28;25060;-71
2023/08/10 00:40:36;;;;;;;5.10;2.05;;;;;;;;;;4987529;28;25067;-69
2023/08/10 00:43:02;;;;;;;5.47;2.10;;;;;;;;;;4993614;28;25075;-72
2023/08/10 00:45:29;;;;;;;5.20;2.22;;;;;;;;;;5006570;28;25155;-71
2023/08/10 00:47:56;;;;;;;5.63;2.17;;;;;;;;;;5001487;28;25059;-71
2023/08/10 00:50:22;;;;;;;4.15;2.50;;;;;;;;;;5004792;28;25048;-70
2023/08/10 00:52:48;;;;;;;2.72;2.10;;;;;;;;;;4999650;28;25139;-70
2023/08/10 00:55:15;;;;;;;5.15;2.22;;;;;;;;;;4994027;28;25059;-70
2023/08/10 00:57:41;;;;;;;5.78;2.75;;;;;;;;;;4999049;28;25078;-72
2023/08/10 01:00:10;;;;;;;5.95;2.30;;;;;;;;;;4993780;28;25069;-71
2023/08/10 01:02:36;;;;;;;6.40;2.20;;;;;;;;;;4994320;28;25059;-72
2023/08/10 01:05:02;;;;;;;4.53;2.03;;;;;;;;;;5001529;28;25153;-72
2023/08/10 01:07:31;;;;;;;8.13;2.70;;;;;;;;;;4987388;28;25071;-70
2023/08/10 01:10:05;;;;;;;7.40;2.28;;;;;;;;;;4995680;28;25151;-72
2023/08/10 01:12:37;;;;;;;4.32;2.00;;;;;;;;;;5004061;28;25083;-72
2023/08/10 01:15:12;;;;;;;2.92;1.90;;;;;;;;;;5002550;28;25143;-71
2023/08/10 01:17:40;;;;;;;3.85;1.90;;;;;;;;;;4995896;28;25077;-69
2023/08/10 01:20:11;;;;;;;3.35;2.00;;;;;;;;;;4999927;28;25100;-71
2023/08/10 01:22:37;;;;;;;7.93;2.20;;;;;;;;;;4998810;28;25137;-71
2023/08/10 01:25:05;;;;;;;5.22;2.60;;;;;;;;;;4995471;28;25077;-71
2023/08/10 01:27:32;;;;;;;6.55;2.45;;;;;;;;;;5016807;28;25065;-70
2023/08/10 01:30:00;;;;;;;6.22;2.40;;;;;;;;;;5001942;28;25063;-70
2023/08/10 01:32:28;;;;;;;5.07;2.67;;;;;;;;;;4991664;28;25132;-71
2023/08/10 01:34:54;;;;;;;4.22;2.15;;;;;;;;;;4994966;28;25073;-70
2023/08/10 01:37:21;;;;;;;3.30;2.28;;;;;;;;;;4994909;28;25117;-70
2023/08/10 01:39:47;;;;;;;5.68;2.42;;;;;;;;;;4990431;28;25144;-69
2023/08/10 01:42:13;;;;;;;5.40;2.40;;;;;;;;;;4991635;28;25123;-72
2023/08/10 01:44:39;;;;;;;7.28;2.83;;;;;;;;;;4998421;28;25096;-71
2023/08/10 01:47:08;;;;;;;5.82;2.38;;;;;;;;;;4993458;28;25073;-70
2023/08/10 01:49:34;;;;;;;9.27;2.50;;;;;;;;;;4999455;28;25065;-71
2023/08/10 01:52:02;;;;;;;4.18;2.30;;;;;;;;;;4996700;28;25058;-71
2023/08/10 01:54:29;;;;;;;6.38;2.45;;;;;;;;;;5003219;28;25063;-70
2023/08/10 01:56:55;;;;;;;7.15;2.60;;;;;;;;;;5005237;28;25090;-71
2023/08/10 01:59:21;;;;;;;6.55;2.47;;;;;;;;;;4998964;28;25101;-72
2023/08/10 02:01:47;;;;;;;5.35;2.40;;;;;;;;;;4996538;28;25159;-71
2023/08/10 02:04:13;;;;;;;6.68;2.40;;;;;;;;;;4992446;28;25063;-71
2023/08/10 02:06:40;;;;;;;2.97;2.08;;;;;;;;;;5018386;28;25048;-69
2023/08/10 02:09:06;;;;;;;4.15;2.33;;;;;;;;;;4999469;28;25069;-71
2023/08/10 02:11:32;;;;;;;5.03;2.50;;;;;;;;;;5007224;28;25077;-72
2023/08/10 02:13:59;;;;;;;7.35;2.70;;;;;;;;;;4997634;28;25263;-71
2023/08/10 02:16:25;;;;;;;2.53;2.00;;;;;;;;;;4990125;28;25169;-71
2023/08/10 02:18:51;;;;;;;4.78;2.47;;;;;;;;;;4994165;28;25208;-69
2023/08/10 02:21:17;;;;;;;5.65;2.55;;;;;;;;;;5000069;28;25094;-72
2023/08/10 02:23:43;;;;;;;4.53;2.95;;;;;;;;;;5005743;28;25060;-71
2023/08/10 02:26:10;;;;;;;3.30;2.35;;;;;;;;;;4989913;28;25047;-70
2023/08/10 02:28:36;;;;;;;7.38;2.60;;;;;;;;;;4999108;28;25047;-71
2023/08/10 02:31:04;;;;;;;5.72;2.60;;;;;;;;;;4995093;28;25054;-72
2023/08/10 02:33:30;;;;;;;5.00;2.78;;;;;;;;;;5001508;28;25048;-71
2023/08/10 02:35:56;;;;;;;4.72;2.10;;;;;;;;;;4999879;28;25053;-71
2023/08/10 02:38:22;;;;;;;4.97;2.15;;;;;;;;;;5002613;28;25055;-71
2023/08/10 02:40:48;;;;;;;4.28;2.58;;;;;;;;;;4996651;28;25069;-70
2023/08/10 02:43:14;;;;;;;5.72;3.20;;;;;;;;;;4988067;28;25062;-71
2023/08/10 02:45:40;;;;;;;5.50;2.63;;;;;;;;;;4993141;28;25096;-70
2023/08/10 02:48:06;;;;;;;6.38;2.53;;;;;;;;;;4986009;28;25059;-72
2023/08/10 02:50:32;;;;;;;4.07;2.35;;;;;;;;;;5012856;28;25048;-70
2023/08/10 02:52:58;;;;;;;6.00;2.80;;;;;;;;;;5009239;28;25059;-71
2023/08/10 02:55:24;;;;;;;3.83;2.72;;;;;;;;;;5015479;28;25081;-70
2023/08/10 02:57:50;;;;;;;3.70;2.78;;;;;;;;;;5005155;28;25055;-71
2023/08/10 03:00:17;;;;;;;5.75;3.13;;;;;;;;;;4996070;28;25079;-70
2023/08/10 03:02:43;;;;;;;6.45;3.25;;;;;;;;;;4994554;28;25072;-71
2023/08/10 03:05:11;;;;;;;6.88;3.67;;;;;;;;;;5013634;28;25060;-71
2023/08/10 03:07:37;;;;;;;5.05;2.92;;;;;;;;;;4996017;28;25045;-71
2023/08/10 03:10:03;;;;;;;5.40;2.83;;;;;;;;;;4990780;28;25304;-70
2023/08/10 03:12:29;;;;;;;6.65;2.53;;;;;;;;;;4991691;28;25145;-72
2023/08/10 03:14:55;;;;;;;4.50;2.72;;;;;;;;;;4995335;28;25104;-70
2023/08/10 03:17:21;;;;;;;6.18;2.78;;;;;;;;;;4992747;28;25087;-71
2023/08/10 03:19:50;;;;;;;4.97;2.90;;;;;;;;;;5001077;28;25073;-70
2023/08/10 03:22:16;;;;;;;5.20;3.08;;;;;;;;;;5006102;28;25101;-70
2023/08/10 03:24:42;;;;;;;7.15;3.45;;;;;;;;;;5007408;28;25089;-71
2023/08/10 03:27:09;;;;;;;7.30;3.47;;;;;;;;;;4995748;28;25069;-69
2023/08/10 03:29:35;;;;;;;10.18;3.92;;;;;;;;;;5003313;28;25083;-70
2023/08/10 03:32:01;;;;;;;5.53;3.30;;;;;;;;;;4987608;28;25080;-72
2023/08/10 03:34:27;;;;;;;8.32;3.88;;;;;;;;;;4992015;28;25221;-71
2023/08/10 03:36:54;;;;;;;9.65;3.30;;;;;;;;;;4997626;28;25063;-71
2023/08/10 03:39:20;;;;;;;6.40;3.88;;;;;;;;;;4995313;28;25087;-73
2023/08/10 03:41:46;;;;;;;3.67;3.17;;;;;;;;;;4996729;28;25076;-72
2023/08/10 03:44:12;;;;;;;4.40;2.72;;;;;;;;;;5020078;28;25069;-73
2023/08/10 03:46:38;;;;;;;10.80;3.40;;;;;;;;;;4999029;28;25077;-72
2023/08/10 03:49:05;;;;;;;6.90;3.38;;;;;;;;;;4999029;28;25055;-74
2023/08/10 03:51:31;;;;;;;6.20;3.92;;;;;;;;;;4997515;28;25069;-74
2023/08/10 03:53:57;;;;;;;5.47;3.60;;;;;;;;;;5002083;28;25045;-72
2023/08/10 03:56:22;;;;;;;6.63;4.07;;;;;;;;;;4989793;28;25128;-72
2023/08/10 03:58:48;;;;;;;9.07;3.97;;;;;;;;;;4998444;28;25099;-72
2023/08/10 04:01:14;;;;;;;5.45;3.35;;;;;;;;;;5009776;28;25061;-74
2023/08/10 04:03:41;;;;;;;5.47;3.72;;;;;;;;;;5013354;28;25062;-73
2023/08/10 04:06:07;;;;;;;8.57;4.07;;;;;;;;;;5007541;28;25087;-72
2023/08/10 04:08:33;;;;;;;7.50;4.00;;;;;;;;;;5022348;28;25053;-72
2023/08/10 04:10:59;;;;;;;5.75;4.75;;;;;;;;;;5009653;28;25166;-73
2023/08/10 04:13:26;;;;;;;13.05;4.80;;;;;;;;;;4998841;28;25059;-73
2023/08/10 04:15:53;;;;;;;7.60;3.70;;;;;;;;;;5000787;28;25059;-73
2023/08/10 04:18:19;;;;;;;7.15;3.88;;;;;;;;;;4992270;28;25050;-73
2023/08/10 04:20:45;;;;;;;5.22;3.63;;;;;;;;;;4993512;28;25075;-72
2023/08/10 04:23:11;;;;;;;7.68;4.25;;;;;;;;;;5001256;28;25099;-72
2023/08/10 04:25:37;;;;;;;4.72;3.85;;;;;;;;;;5006060;28;25141;-69
2023/08/10 04:28:03;;;;;;;6.72;3.67;;;;;;;;;;5003900;28;25067;-73
2023/08/10 04:30:29;;;;;;;6.47;4.35;;;;;;;;;;5000804;28;25073;-72
2023/08/10 04:32:56;;;;;;;10.38;5.32;;;;;;;;;;4999101;28;25087;-73
2023/08/10 04:35:23;;;;;;;12.23;6.43;;;;;;;;;;5000869;28;25141;-72
2023/08/10 04:37:50;;;;;;;8.32;6.20;;;;;;;;;;5002903;28;25054;-72
2023/08/10 04:40:16;;;;;;;9.48;6.03;;;;;;;;;;4996811;28;25134;-73
2023/08/10 04:42:42;;;;;;;11.20;5.72;;;;;;;;;;4998604;28;25088;-72
2023/08/10 04:45:12;;;;;;;8.52;5.53;;;;;;;;;;4999200;28;25056;-73
2023/08/10 04:47:38;;;;;;;11.52;5.40;;;;;;;;;;5010387;28;25077;-73
2023/08/10 04:50:05;;;;;;;9.88;5.82;;;;;;;;;;5000742;28;25070;-72
2023/08/10 04:52:31;;;;;;;9.45;5.72;;;;;;;;;;5015154;28;25126;-72
2023/08/10 04:54:57;;;;;;;7.68;5.80;;;;;;;;;;5015127;28;25066;-74
2023/08/10 04:57:23;;;;;;;11.90;6.32;;;;;;;;;;5005012;28;25058;-72
2023/08/10 04:59:49;;;;;;;7.50;5.85;;;;;;;;;;5008571;28;25062;-74
2023/08/10 05:02:15;;;;;;;10.43;6.70;;;;;;;;;;5000491;28;25064;-72
2023/08/10 05:04:41;;;;;;;9.98;6.40;;;;;;;;;;5005228;28;25122;-74
2023/08/10 05:07:07;;;;;;;13.30;6.63;;;;;;;;;;5002317;28;25098;-74
2023/08/10 05:09:33;;;;;;;11.73;6.00;;;;;;;;;;4998593;28;25095;-72
2023/08/10 05:11:59;;;;;;;14.75;7.47;;;;;;;;;;5009225;28;25093;-74
2023/08/10 05:14:25;;;;;;;13.15;7.65;;;;;;;;;;5004706;28;25051;-75
2023/08/10 05:16:51;;;;;;;10.07;6.55;;;;;;;;;;5001604;28;25076;-73
2023/08/10 05:19:18;;;;;;;11.43;6.70;;;;;;;;;;5005717;28;25046;-73
2023/08/10 05:21:43;;;;;;;8.32;6.65;;;;;;;;;;5018873;28;25138;-72
2023/08/10 05:24:09;;;;;;;12.10;7.18;;;;;;;;;;5001673;28;25058;-74
2023/08/10 05:26:35;;;;;;;11.68;6.90;;;;;;;;;;4993845;28;25122;-74
2023/08/10 05:29:01;;;;;;;10.60;7.93;;;;;;;;;;4998672;28;25061;-73
2023/08/10 05:31:27;;;;;;;13.00;7.07;;;;;;;;;;5006316;28;25091;-72
2023/08/10 05:33:54;;;;;;;10.35;7.15;;;;;;;;;;5017746;28;25126;-72
2023/08/10 05:36:20;;;;;;;12.20;6.75;;;;;;;;;;5011913;28;25049;-72
2023/08/10 05:38:46;;;;;;;9.80;6.80;;;;;;;;;;4995508;28;25081;-72
2023/08/10 05:41:13;;;;;;;10.73;6.70;;;;;;;;;;5001733;28;25080;-73
2023/08/10 05:43:39;;;;;;;12.38;7.05;;;;;;;;;;5001572;28;25059;-72
2023/08/10 05:46:05;;;;;;;9.75;6.50;;;;;;;;;;5007545;28;25136;-72
2023/08/10 05:48:33;;;;;;;14.25;6.57;;;;;;;;;;5007028;28;25048;-71
2023/08/10 05:50:59;;;;;;;9.77;6.50;;;;;;;;;;5000966;28;25136;-73
2023/08/10 05:53:25;;;;;;;12.85;6.28;;;;;;;;;;5017116;28;25121;-72
2023/08/10 05:55:51;;;;;;;13.13;6.05;;;;;;;;;;5011517;28;25127;-73
2023/08/10 05:58:17;;;;;;;8.50;5.95;;;;;;;;;;5006105;28;25087;-72
2023/08/10 06:00:43;;;;;;;11.00;5.70;;;;;;;;;;4999841;28;25134;-72
2023/08/10 06:03:09;;;;;;;10.75;5.97;;;;;;;;;;4999762;28;25051;-72
2023/08/10 06:05:35;;;;;;;10.45;6.65;;;;;;;;;;4997531;28;25059;-72
2023/08/10 06:08:02;;;;;;;11.05;6.95;;;;;;;;;;4994940;28;25159;-73
2023/08/10 06:10:28;;;;;;;15.57;6.88;;;;;;;;;;5008248;28;25099;-72
2023/08/10 06:12:54;;;;;;;13.02;7.43;;;;;;;;;;4996464;28;25071;-73
2023/08/10 06:15:20;;;;;;;14.27;8.48;;;;;;;;;;4989395;28;25073;-72
2023/08/10 06:17:46;;;;;;;10.27;7.68;;;;;;;;;;4992896;28;25070;-73
2023/08/10 06:20:21;;;;;;;14.68;7.55;;;;;;;;;;5010706;28;25054;-72
2023/08/10 06:22:47;;;;;;;13.27;7.50;;;;;;;;;;5017794;28;25103;-72
2023/08/10 06:25:13;;;;;;;10.05;7.28;;;;;;;;;;5008742;28;25053;-72
2023/08/10 06:27:40;;;;;;;14.95;10.02;;;;;;;;;;5001046;28;25111;-72
2023/08/10 06:30:06;;;;;;;11.75;9.10;;;;;;;;;;4996147;28;25094;-73
2023/08/10 06:32:36;;;;;;;15.00;8.40;;;;;;;;;;5008293;28;25150;-72
2023/08/10 06:35:02;;;;;;;13.07;8.80;;;;;;;;;;5003364;28;25062;-72
2023/08/10 06:37:28;;;;;;;15.30;9.07;;;;;;;;;;5001586;28;25058;-71
2023/08/10 06:39:54;;;;;;;18.58;11.10;;;;;;;;;;5003913;28;25047;-70
2023/08/10 06:42:20;;;;;;;20.52;11.25;;;;;;;;;;4999072;28;25063;-73
2023/08/10 06:44:46;;;;;;;17.75;11.57;;;;;;;;;;5007059;28;25126;-71
2023/08/10 06:47:12;;;;;;;17.23;11.50;;;;;;;;;;4997640;28;25092;-72
2023/08/10 06:49:38;;;;;;;19.40;11.77;;;;;;;;;;5013077;28;25306;-73
2023/08/10 06:52:04;;;;;;;18.92;12.07;;;;;;;;;;4995731;28;25066;-73
2023/08/10 06:54:31;;;;;;;18.80;11.82;;;;;;;;;;5004567;28;25077;-72
2023/08/10 06:56:57;;;;;;;20.23;11.55;;;;;;;;;;5004537;28;25125;-72
2023/08/10 06:59:23;;;;;;;23.88;12.70;;;;;;;;;;4990501;28;25067;-75
2023/08/10 07:01:50;;;;;;;20.83;12.00;;;;;;;;;;4999460;28;25064;-72
2023/08/10 07:04:17;;;;;;;25.02;12.55;;;;;;;;;;4994921;28;25089;-71
2023/08/10 07:06:43;;;;;;;29.92;13.57;;;;;;;;;;4997248;28;25062;-71
2023/08/10 07:09:09;;;;;;;26.83;13.80;;;;;;;;;;4996884;28;25109;-73
2023/08/10 07:11:35;;;;;;;28.77;14.07;;;;;;;;;;5002253;28;25086;-73
2023/08/10 07:14:03;;;;;;;24.02;12.45;;;;;;;;;;5001928;28;25142;-72
2023/08/10 07:16:29;;;;;;;21.92;10.80;;;;;;;;;;5014698;28;25082;-72
2023/08/10 07:18:55;;;;;;;24.77;11.52;;;;;;;;;;5004540;28;25135;-74
2023/08/10 07:21:22;;;;;;;20.88;10.77;;;;;;;;;;5025019;28;25086;-72
2023/08/10 07:23:48;;;;;;;18.98;8.95;;;;;;;;;;5011595;28;25065;-73
2023/08/10 07:26:14;;;;;;;15.32;8.48;;;;;;;;;;5004914;28;25150;-74
2023/08/10 07:28:40;;;;;;;15.57;8.25;;;;;;;;;;4989613;28;25054;-72
2023/08/10 07:31:06;;;;;;;17.17;8.10;;;;;;;;;;4992031;28;25082;-71
2023/08/10 07:33:32;;;;;;;12.50;6.22;;;;;;;;;;5008875;28;25144;-70
2023/08/10 07:35:59;;;;;;;10.63;5.88;;;;;;;;;;4997469;28;25055;-71
2023/08/10 07:38:25;;;;;;;11.88;4.78;;;;;;;;;;5002912;28;25094;-70
2023/08/10 07:40:51;;;;;;;12.20;4.53;;;;;;;;;;4990356;28;25112;-72
2023/08/10 07:43:17;;;;;;;8.60;4.03;;;;;;;;;;5001819;28;25046;-72
2023/08/10 07:45:43;;;;;;;9.90;4.10;;;;;;;;;;4995287;28;25052;-71
2023/08/10 07:48:09;;;;;;;9.18;4.45;;;;;;;;;;4994216;28;25163;-70
2023/08/10 07:50:35;;;;;;;6.80;3.55;;;;;;;;;;4998524;28;25065;-73
2023/08/10 07:53:03;;;;;;;6.38;3.20;;;;;;;;;;4999928;28;25063;-70
2023/08/10 07:55:29;;;;;;;6.45;3.00;;;;;;;;;;4993122;28;25125;-70
2023/08/10 07:57:55;;;;;;;10.18;3.88;;;;;;;;;;4997517;28;25109;-70
2023/08/10 08:00:21;;;;;;;4.47;2.83;;;;;;;;;;5002472;28;25067;-70
2023/08/10 08:02:49;;;;;;;4.38;2.13;;;;;;;;;;4997260;28;25079;-72
2023/08/10 08:05:16;;;;;;;5.47;2.67;;;;;;;;;;4996829;28;25102;-71
2023/08/10 08:07:42;;;;;;;6.75;2.53;;;;;;;;;;4995936;28;25070;-71
2023/08/10 08:10:08;;;;;;;6.00;2.60;;;;;;;;;;4998007;28;25073;-72
2023/08/10 08:12:34;;;;;;;4.93;2.08;;;;;;;;;;4993185;28;25056;-74
2023/08/10 08:15:01;;;;;;;8.60;2.80;;;;;;;;;;4998883;28;25079;-71
2023/08/10 08:17:27;;;;;;;11.95;2.47;;;;;;;;;;5005152;28;24988;-70
2023/08/10 08:19:56;;;;;;;6.00;2.20;;;;;;;;;;4993055;28;25075;-72
2023/08/10 08:22:22;;;;;;;3.80;2.05;;;;;;;;;;5013175;28;25056;-72
2023/08/10 08:24:51;;;;;;;6.28;2.38;;;;;;;;;;5004276;28;25066;-71
2023/08/10 08:27:17;;;;;;;5.07;2.92;;;;;;;;;;5002847;28;25064;-70
2023/08/10 08:29:43;;;;;;;3.47;1.95;;;;;;;;;;5010886;28;25055;-71
2023/08/10 08:32:09;;;;;;;2.80;1.83;;;;;;;;;;5002746;28;25069;-69
2023/08/10 08:34:36;;;;;;;3.75;2.40;;;;;;;;;;5009152;28;25166;-71
2023/08/10 08:37:02;;;;;;;5.63;2.03;;;;;;;;;;4997853;28;25133;-70
2023/08/10 08:39:28;;;;;;;2.50;1.60;;;;;;;;;;5009675;28;25052;-71
2023/08/10 08:41:55;;;;;;;2.17;1.55;;;;;;;;;;5000834;28;25063;-70
2023/08/10 08:44:21;;;;;;;7.32;1.90;;;;;;;;;;5015701;28;25078;-70
2023/08/10 08:46:49;;;;;;;2.88;1.85;;;;;;;;;;5010612;28;25147;-71
2023/08/10 08:49:15;;;;;;;3.95;2.00;;;;;;;;;;4999739;28;25073;-72
2023/08/10 08:51:41;;;;;;;10.05;2.20;;;;;;;;;;4994493;28;25059;-71
2023/08/10 08:54:07;;;;;;;6.88;2.28;;;;;;;;;;4984687;28;25081;-72
2023/08/10 08:56:34;;;;;;;6.22;2.00;;;;;;;;;;4994701;28;25070;-72
2023/08/10 08:59:00;;;;;;;5.88;2.05;;;;;;;;;;4996013;28;25075;-71
2023/08/10 09:01:27;;;;;;;6.43;1.92;;;;;;;;;;5007285;28;25049;-72
2023/08/10 09:03:53;;;;;;;3.28;1.80;;;;;;;;;;5005215;28;25058;-70
2023/08/10 09:06:19;;;;;;;2.45;1.92;;;;;;;;;;5003452;28;25057;-71
2023/08/10 09:08:45;;;;;;;2.60;1.70;;;;;;;;;;5009635;28;26179;-71
2023/08/10 09:11:11;;;;;;;6.00;2.00;;;;;;;;;;5007724;28;25154;-70
2023/08/10 09:13:37;;;;;;;7.80;1.95;;;;;;;;;;5011557;28;25102;-71
2023/08/10 09:16:08;;;;;;;2.70;1.58;;;;;;;;;;4996048;28;25083;-71
2023/08/10 09:18:35;;;;;;;2.38;1.50;;;;;;;;;;5002858;28;25156;-71
2023/08/10 09:21:12;;;;;;;2.97;1.45;;;;;;;;;;5011585;28;25092;-71
2023/08/10 09:23:38;;;;;;;3.53;1.70;;;;;;;;;;4999186;28;25068;-71
2023/08/10 09:26:09;;;;;;;3.63;1.60;;;;;;;;;;5005858;28;25168;-72
2023/08/10 09:28:37;;;;;;;3.30;1.77;;;;;;;;;;5018493;28;25090;-71
2023/08/10 09:31:03;;;;;;;3.03;1.83;;;;;;;;;;4995440;28;25066;-71
2023/08/10 09:33:32;;;;;;;6.95;1.80;;;;;;;;;;5004880;28;25059;-71
2023/08/10 09:36:01;;;;;;;1.92;1.60;;;;;;;;;;4996823;28;25114;-74
2023/08/10 09:38:27;;;;;;;2.35;1.35;;;;;;;;;;4990643;28;25061;-72
2023/08/10 09:41:09;;;;;;;3.83;1.60;;;;;;;;;;5002933;28;25094;-71
2023/08/10 09:43:39;;;;;;;3.30;2.08;;;;;;;;;;4997008;28;24767;-68
2023/08/10 09:46:05;;;;;;;6.05;2.00;;;;;;;;;;5000285;28;25077;-70
2023/08/10 09:48:35;;;;;;;2.67;1.55;;;;;;;;;;5011257;28;25060;-71
2023/08/10 09:51:02;;;;;;;5.22;1.45;;;;;;;;;;5008080;28;25074;-73
2023/08/10 09:53:29;;;;;;;4.47;1.70;;;;;;;;;;5001494;28;25081;-71
2023/08/10 09:55:55;;;;;;;3.90;2.30;;;;;;;;;;5010578;28;25049;-72
2023/08/10 09:58:22;;;;;;;7.68;2.47;;;;;;;;;;4999043;28;25083;-71
2023/08/10 10:00:49;;;;;;;5.05;1.63;;;;;;;;;;4999155;28;25064;-71
2023/08/10 10:03:16;;;;;;;5.82;1.95;;;;;;;;;;5000732;28;25068;-71
2023/08/10 10:05:42;;;;;;;3.15;1.85;;;;;;;;;;4996456;28;25090;-72
2023/08/10 10:08:08;;;;;;;3.50;1.88;;;;;;;;;;4996499;28;25081;-70
2023/08/10 10:10:35;;;;;;;5.05;1.73;;;;;;;;;;4998801;28;25051;-70
2023/08/10 10:13:02;;;;;;;2.65;1.77;;;;;;;;;;4996307;28;25072;-70
2023/08/10 10:15:28;;;;;;;3.95;2.00;;;;;;;;;;4997284;28;25053;-72
2023/08/10 10:17:54;;;;;;;2.63;2.00;;;;;;;;;;4999617;28;25119;-71
2023/08/10 10:20:20;;;;;;;3.25;2.22;;;;;;;;;;4997553;28;25084;-70
2023/08/10 10:22:46;;;;;;;2.97;1.80;;;;;;;;;;5002077;28;25085;-72
2023/08/10 10:25:19;;;;;;;4.07;1.70;;;;;;;;;;4998620;28;25058;-70
2023/08/10 10:27:51;;;;;;;7.03;2.22;;;;;;;;;;5000777;28;25085;-70
2023/08/10 10:30:19;;;;;;;2.42;2.22;;;;;;;;;;4993832;28;25071;-71
2023/08/10 10:32:46;;;;;;;7.82;2.80;;;;;;;;;;4998767;28;25111;-72
2023/08/10 10:35:15;;;;;;;3.67;2.28;;;;;;;;;;4992172;28;25130;-72
2023/08/10 10:37:41;;;;;;;2.92;2.20;;;;;;;;;;4996223;28;25051;-71
2023/08/10 10:40:15;;;;;;;4.00;2.17;;;;;;;;;;4999223;28;25062;-72
2023/08/10 10:43:14;;;;;;;6.55;2.55;;;;;;;;;;4996494;28;25078;-72
2023/08/10 10:45:41;;;;;;;2.55;2.33;;;;;;;;;;4983699;28;25049;-71
2023/08/10 10:48:09;;;;;;;5.40;2.40;;;;;;;;;;5004949;28;25072;-72
2023/08/10 10:50:36;;;;;;;4.28;2.42;;;;;;;;;;4997399;28;25060;-72
2023/08/10 10:53:05;;;;;;;6.45;2.40;;;;;;;;;;5002878;28;25160;-71
2023/08/10 10:55:34;;;;;;;5.20;3.10;;;;;;;;;;5004850;28;25078;-71
2023/08/10 10:58:02;;;;;;;3.45;2.55;;;;;;;;;;5005007;28;25103;-71
2023/08/10 11:00:28;;;;;;;2.70;2.00;;;;;;;;;;5005180;28;25107;-71
2023/08/10 11:02:54;;;;;;;3.90;2.53;;;;;;;;;;5001398;28;25188;-72
2023/08/10 11:05:20;;;;;;;3.90;2.53;;;;;;;;;;5002789;28;25086;-71
2023/08/10 11:07:48;;;;;;;4.20;2.95;;;;;;;;;;5005812;28;25093;-71
2023/08/10 11:10:15;;;;;;;3.65;2.72;;;;;;;;;;5001438;28;25070;-70
2023/08/10 11:12:42;;;;;;;3.90;2.85;;;;;;;;;;5000456;28;25069;-71
2023/08/10 11:15:09;;;;;;;3.25;2.53;;;;;;;;;;5001745;28;25084;-72
2023/08/10 11:17:38;;;;;;;3.88;2.55;;;;;;;;;;4992667;28;25098;-70
2023/08/10 11:20:12;;;;;;;5.22;2.45;;;;;;;;;;5006057;28;25049;-74
2023/08/10 11:22:48;;;;;;;3.60;2.67;;;;;;;;;;4994271;28;25148;-70
2023/08/10 11:25:16;;;;;;;5.25;2.72;;;;;;;;;;4993449;28;25052;-73
2023/08/10 11:27:43;;;;;;;4.88;3.10;;;;;;;;;;5004792;28;25051;-72
2023/08/10 11:30:10;;;;;;;8.60;2.42;;;;;;;;;;5000096;28;25178;-71
2023/08/10 11:32:42;;;;;;;6.28;2.42;;;;;;;;;;5008470;28;25074;-71
2023/08/10 11:35:09;;;;;;;4.30;2.45;;;;;;;;;;5002367;28;25172;-71
2023/08/10 11:37:36;;;;;;;6.97;2.83;;;;;;;;;;4996976;28;25078;-73
2023/08/10 11:40:12;;;;;;;6.15;3.13;;;;;;;;;;4998415;28;25152;-72
2023/08/10 11:42:48;;;;;;;6.05;2.80;;;;;;;;;;5003723;28;25153;-72
2023/08/10 11:45:20;;;;;;;4.22;2.80;;;;;;;;;;5007563;28;25059;-72
2023/08/10 11:47:47;;;;;;;2.75;2.15;;;;;;;;;;5006441;28;25089;-70
2023/08/10 11:50:17;;;;;;;3.83;2.80;;;;;;;;;;4999598;28;25123;-72
2023/08/10 11:52:43;;;;;;;2.97;1.98;;;;;;;;;;5009474;28;25074;-72
2023/08/10 11:55:14;;;;;;;5.05;2.03;;;;;;;;;;5009764;28;25133;-72
2023/08/10 11:57:43;;;;;;;3.55;2.45;;;;;;;;;;5008195;28;25070;-70
2023/08/10 12:00:38;;;;;;;3.17;2.38;;;;;;;;;;5000508;28;25076;-71
2023/08/10 12:03:07;;;;;;;6.43;2.28;;;;;;;;;;4998697;28;25166;-72
2023/08/10 12:05:35;;;;;;;4.68;2.28;;;;;;;;;;5013939;28;25160;-74
2023/08/10 12:08:02;;;;;;;6.22;2.17;;;;;;;;;;5002491;28;25105;-71
2023/08/10 12:10:33;;;;;;;3.50;2.05;;;;;;;;;;5002702;28;25077;-71
2023/08/10 12:13:02;;;;;;;4.60;2.40;;;;;;;;;;4999894;28;25061;-71
2023/08/10 12:15:31;;;;;;;3.53;2.65;;;;;;;;;;5024309;28;25053;-71
2023/08/10 12:17:57;;;;;;;6.88;2.10;;;;;;;;;;5006810;28;25106;-72
2023/08/10 12:20:23;;;;;;;4.18;2.40;;;;;;;;;;5006527;28;25061;-72
2023/08/10 12:22:49;;;;;;;5.95;2.05;;;;;;;;;;4996788;28;25088;-71
2023/08/10 12:25:15;;;;;;;3.35;1.60;;;;;;;;;;4992497;28;25088;-71
2023/08/10 12:27:41;;;;;;;5.22;2.17;;;;;;;;;;5003871;28;25080;-72
2023/08/10 12:30:09;;;;;;;3.42;2.35;;;;;;;;;;5000935;28;25143;-72
2023/08/10 12:32:35;;;;;;;3.17;1.88;;;;;;;;;;5003691;28;25063;-72
2023/08/10 12:35:01;;;;;;;4.00;2.35;;;;;;;;;;5021176;28;25052;-72
2023/08/10 12:37:27;;;;;;;2.97;2.08;;;;;;;;;;4994660;28;25078;-71
2023/08/10 12:39:54;;;;;;;4.55;2.08;;;;;;;;;;5011347;28;25087;-72
2023/08/10 12:42:20;;;;;;;3.58;2.33;;;;;;;;;;4992177;28;25072;-72
2023/08/10 12:44:46;;;;;;;6.00;2.80;;;;;;;;;;4989917;28;25067;-72
2023/08/10 12:47:12;;;;;;;3.92;2.33;;;;;;;;;;4998780;28;25109;-71
2023/08/10 12:49:39;;;;;;;7.88;2.78;;;;;;;;;;4994123;28;25066;-72
2023/08/10 12:52:06;;;;;;;6.20;2.13;;;;;;;;;;5002208;28;25160;-71
2023/08/10 12:54:32;;;;;;;3.22;2.22;;;;;;;;;;4995221;28;25108;-73
2023/08/10 12:56:58;;;;;;;2.28;2.00;;;;;;;;;;4998025;28;25071;-71
2023/08/10 12:59:24;;;;;;;4.25;2.15;;;;;;;;;;5007662;28;25064;-72
2023/08/10 13:01:52;;;;;;;2.55;1.40;;;;;;;;;;5005883;28;25084;-72
2023/08/10 13:04:18;;;;;;;3.15;2.05;;;;;;;;;;5006250;28;25070;-72
2023/08/10 13:06:44;;;;;;;5.53;1.70;;;;;;;;;;4997612;28;25057;-71
2023/08/10 13:09:10;;;;;;;6.72;2.33;;;;;;;;;;4994827;28;25070;-72
2023/08/10 13:11:36;;;;;;;1.80;1.55;;;;;;;;;;5004281;28;25077;-72
2023/08/10 13:14:03;;;;;;;2.75;1.60;;;;;;;;;;5020019;28;25069;-71
2023/08/10 13:16:29;;;;;;;3.88;2.03;;;;;;;;;;5022014;28;25055;-72
2023/08/10 13:18:56;;;;;;;5.75;2.08;;;;;;;;;;4998641;28;25068;-71
2023/08/10 13:21:22;;;;;;;4.00;1.65;;;;;;;;;;5016264;28;25084;-72
2023/08/10 13:23:48;;;;;;;4.40;1.52;;;;;;;;;;4996599;28;25050;-71
2023/08/10 13:26:15;;;;;;;6.68;1.77;;;;;;;;;;5005726;28;25042;-71
2023/08/10 13:28:41;;;;;;;4.40;1.63;;;;;;;;;;4997648;28;25070;-71
2023/08/10 13:31:07;;;;;;;3.45;1.90;;;;;;;;;;4997501;28;25053;-71
2023/08/10 13:33:33;;;;;;;3.83;1.85;;;;;;;;;;4998414;28;25196;-74
2023/08/10 13:36:00;;;;;;;2.25;1.52;;;;;;;;;;5003782;28;25073;-71
2023/08/10 13:38:26;;;;;;;2.97;2.17;;;;;;;;;;4995824;28;25127;-70
2023/08/10 13:40:52;;;;;;;3.30;1.70;;;;;;;;;;4999163;28;25078;-72
2023/08/10 13:43:18;;;;;;;3.53;2.05;;;;;;;;;;4999622;28;25127;-72
2023/08/10 13:45:44;;;;;;;3.90;2.33;;;;;;;;;;4996476;28;25157;-72
2023/08/10 13:48:10;;;;;;;3.42;2.05;;;;;;;;;;5018587;28;25047;-71
2023/08/10 13:50:36;;;;;;;3.97;1.73;;;;;;;;;;5017314;28;25066;-71
2023/08/10 13:53:03;;;;;;;2.10;1.50;;;;;;;;;;5004289;28;25075;-74
2023/08/10 13:55:29;;;;;;;4.20;2.08;;;;;;;;;;5018409;28;25097;-72
2023/08/10 13:57:56;;;;;;;2.55;1.33;;;;;;;;;;5005755;28;25152;-70
2023/08/10 14:00:22;;;;;;;6.63;1.60;;;;;;;;;;5021544;28;25059;-71
2023/08/10 14:02:48;;;;;;;1.40;1.30;;;;;;;;;;5011152;28;25056;-72
2023/08/10 14:05:14;;;;;;;2.88;1.70;;;;;;;;;;5002106;28;25064;-72
2023/08/10 14:07:40;;;;;;;5.78;2.60;;;;;;;;;;5010687;28;25052;-71
2023/08/10 14:10:07;;;;;;;6.68;1.95;;;;;;;;;;5006052;28;25056;-71
2023/08/10 14:12:33;;;;;;;3.78;1.88;;;;;;;;;;5004760;28;25064;-72
2023/08/10 14:14:59;;;;;;;7.05;1.75;;;;;;;;;;5004614;28;25168;-73
2023/08/10 14:17:25;;;;;;;7.88;1.90;;;;;;;;;;4993461;28;25141;-74
2023/08/10 14:19:51;;;;;;;3.95;1.55;;;;;;;;;;5009716;28;25050;-71
2023/08/10 14:22:17;;;;;;;2.20;1.33;;;;;;;;;;4994257;28;25077;-72
2023/08/10 14:24:43;;;;;;;5.03;1.63;;;;;;;;;;5004596;28;25101;-72
2023/08/10 14:27:09;;;;;;;3.67;1.70;;;;;;;;;;4998010;28;25088;-72
2023/08/10 14:29:35;;;;;;;1.98;1.80;;;;;;;;;;5000429;28;25053;-72
2023/08/10 14:32:01;;;;;;;3.15;1.70;;;;;;;;;;5009795;28;25053;-71
2023/08/10 14:34:27;;;;;;;3.88;1.42;;;;;;;;;;5002787;28;25073;-72
2023/08/10 14:36:54;;;;;;;3.22;1.90;;;;;;;;;;4997936;28;25132;-74
2023/08/10 14:39:20;;;;;;;2.20;1.48;;;;;;;;;;5008065;28;25164;-73